Latest Weather Observations for Canterbury

IDN60901

Issued at 5:41 pm EST Saturday 1 August 2015 (issued every 10 minutes, with the page automatically refreshed every 10 minutes)

About weather observations | Map of Sydney area stations | Latest observations for Sydney area | Other Formats
Station Details ID: 066194 Name: CANTERBURY RACECOURSE AWS Lat: -33.91 Lon: 151.11 Height: 3.0 m
Data from the previous 72 hours. | See also: Recent months at Canterbury
Date/Time
EST
Tmp

°C
App
Tmp
°C
Dew
Point
°C
Rel
Hum
%
Delta-T

°C
Wind Press
QNH
hPa
Press
MSL
hPa
Rain
since
9 am
mm
Dir
 
Spd
km/h
Gust
km/h
Spd
kts
Gust
kts
01/05:30pm 18.0 14.2 1.9 34 7.3 N 11 17 6 9 - - 0.0
01/05:00pm 18.9 13.5 1.4 31 7.9 NNW 19 30 10 16 - - 0.0
01/04:30pm 19.2 13.5 0.8 29 8.2 NNW 20 33 11 18 - - 0.0
01/04:00pm 19.4 13.8 0.9 29 8.3 NNW 20 32 11 17 - - 0.0
01/03:30pm 20.5 15.1 1.4 28 8.7 NNW 19 30 10 16 - - 0.0
01/03:00pm 20.2 14.8 1.1 28 8.6 NNW 19 30 10 16 - - 0.0
01/02:30pm 21.3 15.8 2.1 28 8.9 NW 20 39 11 21 - - 0.0
01/02:00pm 21.2 15.3 2.0 28 8.9 NW 22 39 12 21 - - 0.0
01/01:30pm 19.9 14.0 1.4 29 8.4 NW 22 35 12 19 - - 0.0
01/01:00pm 20.5 15.3 3.3 32 8.1 NW 20 37 11 20 - - 0.0
01/12:30pm 19.9 14.4 4.0 35 7.6 WNW 22 33 12 18 - - 0.0
01/12:00pm 19.2 13.0 4.2 37 7.2 WNW 26 37 14 20 - - 0.0
01/11:30am 18.9 13.1 4.3 38 7.0 NW 24 39 13 21 - - 0.0
01/11:00am 18.4 13.4 3.8 38 6.9 NW 19 28 10 15 - - 0.0
01/10:30am 17.4 13.8 5.0 44 5.9 NW 13 22 7 12 - - 0.0
01/10:00am 14.4 11.3 5.5 55 4.2 NNW 11 17 6 9 - - 0.0
01/09:30am 12.7 10.6 6.7 67 2.9 NW 7 13 4 7 - - 0.0
01/09:00am 10.6 8.6 6.2 74 2.0 W 6 9 3 5 - - 0.0
01/08:30am 9.1 7.0 6.0 81 1.4 WNW 6 9 3 5 - - 0.0
01/08:00am 7.8 6.0 7.2 96 0.3 NNW 6 7 3 4 - - 0.0
01/07:30am 4.7 3.5 4.4 98 0.1 CALM 0 0 0 0 - - 0.0
01/07:00am 3.9 2.5 3.5 97 0.2 CALM 0 0 0 0 - - 0.0
01/06:30am 3.6 2.1 3.2 97 0.2 CALM 0 0 0 0 - - 0.0
01/06:14am 3.5 2.0 2.9 96 0.2 CALM 0 0 0 0 - - 0.0
01/06:01am 3.7 2.2 3.1 96 0.2 CALM 0 0 0 0 - - 0.0
01/06:00am 3.5 2.0 2.9 96 0.2 CALM 0 0 0 0 - - 0.0
01/05:30am 3.8 1.2 3.2 96 0.2 N 6 7 3 4 - - 0.0
01/05:09am 3.9 2.4 3.2 95 0.3 CALM 0 0 0 0 - - 0.0
01/05:00am 4.0 2.6 3.4 96 0.2 CALM 0 0 0 0 - - 0.0
01/04:30am 4.2 2.8 3.5 95 0.3 CALM 0 0 0 0 - - 0.0
01/04:00am 4.6 2.1 3.9 95 0.3 NW 6 7 3 4 - - 0.0
01/03:30am 4.3 2.9 3.4 94 0.4 CALM 0 0 0 0 - - 0.0
01/03:27am 4.4 3.0 3.5 94 0.4 CALM 0 0 0 0 - - 0.0
01/03:13am 4.3 2.9 3.3 93 0.4 CALM 0 0 0 0 - - 0.0
01/03:00am 4.9 3.6 4.0 94 0.4 CALM 0 0 0 0 - - 0.0
01/02:30am 4.9 3.5 3.6 91 0.5 CALM 0 0 0 0 - - 0.0
01/02:00am 5.9 3.5 4.5 91 0.6 N 6 7 3 4 - - 0.0
01/01:30am 6.0 4.7 4.3 89 0.7 CALM 0 4 0 2 - - 0.0
01/01:00am 6.6 4.4 5.1 90 0.7 NW 6 7 3 4 - - 0.0
01/12:30am 8.1 5.9 6.1 87 0.9 NNW 7 9 4 5 - - 0.0
01/12:00am 8.0 6.1 6.8 92 0.6 NW 6 7 3 4 - - 0.0
 
Date/Time
EST
Tmp

°C
App
Tmp
°C
Dew
Point
°C
Rel
Hum
%
Delta-T

°C
Wind Press
QNH
hPa
Press
MSL
hPa
Rain
since
9 am
mm
Dir
 
Spd
km/h
Gust
km/h
Spd
kts
Gust
kts
31/11:30pm 7.0 6.0 5.5 90 0.7 CALM 0 0 0 0 - - 0.0
31/11:00pm 7.2 5.4 5.3 88 0.8 W 4 7 2 4 - - 0.0
31/10:30pm 7.7 6.6 5.2 84 1.1 CALM 0 0 0 0 - - 0.0
31/10:00pm 9.4 8.4 5.6 77 1.7 CALM 0 6 0 3 - - 0.0
31/09:30pm 9.0 7.9 6.8 86 1.0 N 2 7 1 4 - - 0.0
31/09:00pm 10.5 8.6 7.7 83 1.3 NNE 7 9 4 5 - - 0.0
31/08:30pm 9.5 8.4 6.8 83 1.3 NE 2 6 1 3 - - 0.0
31/08:00pm 9.6 8.8 6.3 80 1.5 CALM 0 0 0 0 - - 0.0
31/07:30pm 10.6 9.7 6.2 74 2.0 CALM 0 0 0 0 - - 0.0
31/07:00pm 13.0 10.9 6.6 65 3.1 E 7 11 4 6 - - 0.0
31/06:30pm 13.5 11.0 6.6 63 3.3 ESE 9 11 5 6 - - 0.0
31/06:00pm 14.0 11.1 6.6 61 3.6 ESE 11 13 6 7 - - 0.0
31/05:30pm 12.8 10.9 5.0 59 3.6 NE 4 7 2 4 - - 0.0
31/05:00pm 16.9 13.9 2.1 37 6.6 N 7 9 4 5 - - 0.0
31/04:30pm 18.3 15.7 3.0 36 7.1 N 6 9 3 5 - - 0.0
31/04:00pm 19.1 16.3 2.9 34 7.5 NNW 7 11 4 6 - - 0.0
31/03:30pm 19.1 16.2 1.6 31 7.9 WNW 6 13 3 7 - - 0.0
31/03:00pm 18.8 15.3 3.4 36 7.2 WSW 11 20 6 11 - - 0.0
31/02:30pm 18.8 15.7 3.8 37 7.1 SW 9 15 5 8 - - 0.0
31/02:00pm 18.6 14.5 2.0 33 7.5 WNW 13 22 7 12 - - 0.0
31/01:30pm 18.2 14.8 1.7 33 7.4 W 9 17 5 9 - - 0.0
31/01:00pm 18.1 14.0 2.0 34 7.3 SW 13 20 7 11 - - 0.0
31/12:30pm 17.9 13.7 1.4 33 7.4 WNW 13 20 7 11 - - 0.0
31/12:00pm 17.5 13.1 2.7 37 6.8 WNW 15 19 8 10 - - 0.0
31/11:30am 17.3 13.3 2.9 38 6.6 WSW 13 22 7 12 - - 0.0
31/11:00am 16.6 12.4 3.6 42 6.0 WNW 15 22 8 12 - - 0.0
31/10:30am 15.9 12.1 3.7 44 5.6 W 13 17 7 9 - - 0.0
31/10:00am 15.6 12.1 3.7 45 5.5 WNW 11 15 6 8 - - 0.0
31/09:30am 15.2 12.2 4.3 48 5.1 NW 9 11 5 6 - - 0.0
31/09:00am 14.0 9.8 4.0 51 4.6 NW 15 24 8 13 - - 0.0
31/08:30am 13.3 8.9 4.7 56 4.0 NW 17 26 9 14 - - 0.0
31/08:00am 12.4 8.6 4.1 57 3.7 WNW 13 19 7 10 - - 0.0
31/07:30am 11.1 7.7 3.9 61 3.2 NNW 11 17 6 9 - - 0.0
31/07:00am 10.5 6.7 3.8 63 3.0 SE 13 17 7 9 - - 0.0
31/06:30am 10.8 8.2 3.4 60 3.2 ESE 6 13 3 7 - - 0.0
31/06:00am 10.9 7.8 3.5 60 3.2 WNW 9 15 5 8 - - 0.0
31/05:30am 11.2 8.6 3.0 57 3.6 WSW 6 9 3 5 - - 0.0
31/05:00am 11.3 8.1 3.1 57 3.6 WNW 9 19 5 10 - - 0.0
31/04:30am 9.1 6.3 3.3 67 2.5 NW 7 9 4 5 - - 0.0
31/04:00am 8.8 7.3 3.2 68 2.4 CALM 0 0 0 0 - - 0.0
31/03:30am 10.7 8.0 2.5 57 3.5 NNW 6 9 3 5 - - 0.0
31/03:00am 10.0 6.9 3.7 65 2.8 NW 9 13 5 7 - - 0.0
31/02:30am 9.4 7.6 3.2 65 2.7 NW 2 6 1 3 - - 0.0
31/02:00am 11.6 8.8 2.9 55 3.8 WNW 7 11 4 6 - - 0.0
31/01:30am 11.5 8.5 4.0 60 3.3 NW 9 13 5 7 - - 0.0
31/01:00am 9.6 8.4 4.8 72 2.1 CALM 0 0 0 0 - - 0.0
31/12:30am 10.7 9.5 4.6 66 2.7 CALM 0 0 0 0 - - 0.0
31/12:00am 12.1 9.8 2.8 53 4.1 WNW 4 7 2 4 - - 0.0
 
Date/Time
EST
Tmp

°C
App
Tmp
°C
Dew
Point
°C
Rel
Hum
%
Delta-T

°C
Wind Press
QNH
hPa
Press
MSL
hPa
Rain
since
9 am
mm
Dir
 
Spd
km/h
Gust
km/h
Spd
kts
Gust
kts
30/11:30pm 13.2 10.3 2.7 49 4.6 NNW 7 13 4 7 - - 0.0
30/11:00pm 13.3 10.0 2.5 48 4.7 NNW 9 15 5 8 - - 0.0
30/10:30pm 13.4 9.3 2.3 47 4.9 NNW 13 20 7 11 - - 0.0
30/10:00pm 13.5 10.1 2.1 46 5.0 NNW 9 13 5 7 - - 0.0
30/09:30pm 13.4 9.7 2.6 48 4.8 NW 11 19 6 10 - - 0.0
30/09:00pm 13.4 9.7 2.3 47 4.9 NW 11 19 6 10 - - 0.0
30/08:30pm 13.9 9.8 2.5 46 5.0 NW 13 19 7 10 - - 0.0
30/08:00pm 14.4 10.3 2.3 44 5.3 NNW 13 20 7 11 - - 0.0
30/07:30pm 14.8 10.4 2.7 44 5.4 NNW 15 20 8 11 - - 0.0
30/07:00pm 15.5 11.0 2.0 40 6.0 NNW 15 22 8 12 - - 0.0
30/06:30pm 15.3 10.8 2.1 41 5.8 NNW 15 24 8 13 - - 0.0
30/06:00pm 15.4 11.6 1.9 40 6.0 NNW 11 20 6 11 - - 0.0
30/05:30pm 16.1 11.9 1.4 37 6.5 N 13 22 7 12 - - 0.0
30/05:00pm 16.8 12.5 1.3 35 6.8 N 13 19 7 10 - - 0.0
30/04:30pm 17.3 13.4 1.3 34 7.1 NNW 11 19 6 10 - - 0.0
30/04:00pm 18.0 13.4 1.5 33 7.4 NNW 15 24 8 13 - - 0.0
30/03:30pm 18.5 13.6 1.9 33 7.5 NNW 17 22 9 12 - - 0.0
30/03:00pm 18.3 13.4 1.8 33 7.4 NNW 17 22 9 12 - - 0.0
30/02:30pm 18.7 14.1 1.7 32 7.7 NNW 15 24 8 13 - - 0.0
30/02:00pm 18.4 13.9 1.9 33 7.5 NNW 15 20 8 11 - - 0.0
30/01:30pm 18.1 13.4 3.2 37 6.9 NNW 17 22 9 12 - - 0.0
30/01:00pm 17.5 13.1 2.7 37 6.8 NNW 15 24 8 13 - - 0.0
30/12:30pm 17.0 12.5 2.2 37 6.7 NNW 15 22 8 12 - - 0.0
30/12:00pm 16.7 12.8 3.4 41 6.1 NNW 13 19 7 10 - - 0.0
30/11:30am 16.0 12.6 4.1 45 5.5 NNW 11 17 6 9 - - 0.0
30/11:00am 14.2 11.5 5.8 57 4.0 NW 9 13 5 7 - - 0.0
30/10:30am 12.0 8.4 5.2 63 3.1 NW 13 19 7 10 - - 0.0
30/10:00am 12.6 8.8 5.8 63 3.2 NW 15 22 8 12 - - 0.0
30/09:30am 11.7 9.1 6.2 69 2.6 WNW 9 17 5 9 - - 0.0
30/09:00am 10.1 9.2 7.7 85 1.2 E 2 7 1 4 - - 0.0
30/08:30am 8.3 7.8 8.0 98 0.1 CALM 0 0 0 0 - - 0.0
30/08:00am 6.3 5.0 6.0 98 0.1 NNW 2 6 1 3 - - 0.0
30/07:30am 5.3 4.2 5.0 98 0.1 CALM 0 0 0 0 - - 0.0
30/07:15am 4.7 3.5 4.4 98 0.1 CALM 0 0 0 0 - - 0.0
30/07:00am 4.0 2.6 3.6 97 0.2 CALM 0 0 0 0 - - 0.0
30/06:59am 3.9 2.5 3.5 97 0.2 CALM 0 0 0 0 - - 0.0
30/06:37am 4.6 3.3 4.3 98 0.1 CALM 0 0 0 0 - - 0.0
30/06:30am 4.7 3.5 4.4 98 0.1 CALM 0 0 0 0 - - 0.0
30/06:25am 4.7 3.5 4.4 98 0.1 CALM 0 0 0 0 - - 0.0
30/06:00am 4.6 2.9 4.2 97 0.2 NNW 2 6 1 3 - - 0.0
30/05:36am 5.0 3.8 4.6 97 0.2 CALM 0 0 0 0 - - 0.0
30/05:30am 4.2 2.8 3.8 97 0.2 CALM 0 0 0 0 - - 0.0
30/05:18am 4.4 3.0 3.8 96 0.2 CALM 0 0 0 0 - - 0.0
30/05:12am 4.5 3.2 3.9 96 0.3 CALM 0 0 0 0 - - 0.0
30/05:00am 5.0 3.8 4.4 96 0.3 CALM 0 0 0 0 - - 0.0
30/04:50am 4.6 3.3 3.9 95 0.3 CALM 0 0 0 0 - - 0.0
30/04:30am 5.2 4.0 4.6 96 0.3 CALM 0 0 0 0 - - 0.0
30/04:00am 5.7 4.6 5.3 97 0.2 CALM 0 0 0 0 - - 0.0
30/03:30am 5.8 4.7 5.2 96 0.3 CALM 0 0 0 0 - - 0.0
30/03:00am 6.0 5.0 5.4 96 0.3 CALM 0 0 0 0 - - 0.0
30/02:30am 6.3 5.3 5.6 95 0.3 CALM 0 0 0 0 - - 0.0
30/02:00am 6.4 5.4 5.7 95 0.3 CALM 0 0 0 0 - - 0.0
30/01:30am 7.0 6.2 6.4 96 0.3 CALM 0 0 0 0 - - 0.0
30/01:00am 7.3 6.6 6.9 97 0.2 CALM 0 0 0 0 - - 0.0
30/12:30am 6.6 5.7 6.2 97 0.2 CALM 0 6 0 3 - - 0.0
30/12:00am 6.3 5.3 5.7 96 0.3 CALM 0 0 0 0 - - 0.0
 
Date/Time
EST
Tmp

°C
App
Tmp
°C
Dew
Point
°C
Rel
Hum
%
Delta-T

°C
Wind Press
QNH
hPa
Press
MSL
hPa
Rain
since
9 am
mm
Dir
 
Spd
km/h
Gust
km/h
Spd
kts
Gust
kts
29/11:30pm 6.6 5.7 6.0 96 0.3 CALM 0 0 0 0 - - 0.0
29/11:00pm 6.2 5.1 5.3 94 0.4 CALM 0 0 0 0 - - 0.0
29/10:30pm 6.1 4.7 5.4 95 0.3 NNW 2 6 1 3 - - 0.0
29/10:00pm 6.2 5.2 5.5 95 0.3 CALM 0 0 0 0 - - 0.0
29/09:30pm 6.2 5.1 5.3 94 0.4 CALM 0 0 0 0 - - 0.0
29/09:00pm 6.6 5.6 5.7 94 0.4 CALM 0 0 0 0 - - 0.0
29/08:30pm 7.1 6.2 6.2 94 0.4 CALM 0 0 0 0 - - 0.0
29/08:00pm 7.0 6.0 5.5 90 0.7 CALM 0 0 0 0 - - 0.0
29/07:30pm 7.8 7.0 6.3 90 0.7 CALM 0 0 0 0 - - 0.0
29/07:00pm 8.5 7.6 6.1 85 1.1 CALM 0 0 0 0 - - 0.0
29/06:30pm 9.4 8.6 6.3 81 1.4 CALM 0 0 0 0 - - 0.0
29/06:00pm 10.6 9.2 5.6 71 2.3 E 2 6 1 3 - - 0.0

Latest Capital City Observations: Canberra | Sydney | Melbourne | Brisbane | Adelaide | Perth | Hobart | Darwin

Other Formats:

Comma delimited format used in spreadsheet applications
http://www.bom.gov.au/fwo/IDN60901/IDN60901.94766.axf

JavaScript Object Notation format (JSON) in row-major order
http://www.bom.gov.au/fwo/IDN60901/IDN60901.94766.json